Melody — 3FBS7 — position and weather

sailwx.info

Track history (hours):
 
Tides and Currents Weather Stations Pressure Air Temp Water Temp Dewpoint Dewpoint Depression Visibility Wind Speed Wind Dir Waves Ship Positions

Melody

Operator: Mediterranean Shipping Company

Last reported at 2017-Sep-20 00:28 UTC. Time now 2017-Sep-20 00:35 UTC.
Position N 25°24' W 079°35'.

Length 225 m; draft 7.8 m.

Type: Tanker. MMSI: 371669000.

Date/timePositionNaut miles runAvg speedWind from/ knotsBaromVisibWave heightAir tempDewpointWater temp
2017-Sep-20 00:28N 25°24' W 079°35'714.4
2017-Sep-20 00:01N 25°30' W 079°34'714.2
2017-Sep-19 23:30N 25°38' W 079°33'713.8
2017-Sep-19 23:00N 25°44' W 079°32'713.7
2017-Sep-19 22:31N 25°51' W 079°31'713.8
2017-Sep-19 22:01N 25°58' W 079°30'713.4
2017-Sep-19 21:30N 26°04' W 079°28'815.5
2017-Sep-19 21:00N 26°09' W 079°22'  
2017-Sep-12 12:17N 34°59' W 025°12'4016.7
2017-Sep-12 09:54N 34°56' W 024°24'3116.6
2017-Sep-12 08:00N 34°54' W 023°46'  
Track history (hours):
 
Tides and Currents Weather Stations Pressure Air Temp Water Temp Dewpoint Dewpoint Depression Visibility Wind Speed Wind Dir Waves Ship Positions

Melody

Operator: Mediterranean Shipping Company

Last reported at 2017-Sep-20 00:28 UTC. Time now 2017-Sep-20 00:35 UTC.
Position N 25°24' W 079°35'.

Length 225 m; draft 7.8 m.

Type: Tanker. MMSI: 371669000.

Date/timePositionNaut miles runAvg speedWind from/ knotsBaromVisibWave heightAir tempDewpointWater temp
2017-Sep-20 00:28N 25°24' W 079°35'714.4
2017-Sep-20 00:01N 25°30' W 079°34'714.2
2017-Sep-19 23:30N 25°38' W 079°33'713.8
2017-Sep-19 23:00N 25°44' W 079°32'713.7
2017-Sep-19 22:31N 25°51' W 079°31'713.8
2017-Sep-19 22:01N 25°58' W 079°30'713.4
2017-Sep-19 21:30N 26°04' W 079°28'815.5
2017-Sep-19 21:00N 26°09' W 079°22'  
2017-Sep-12 12:17N 34°59' W 025°12'4016.7
2017-Sep-12 09:54N 34°56' W 024°24'3116.6
2017-Sep-12 08:00N 34°54' W 023°46'  

Dump ship's entire track history